Time;durP1;ratioP1;P1;durP2;ratioP2;P2;SDS_P1;SDS_P2;PMS_P1;PMS_P2;Temp;Humidity;BMP_temperature;BMP_pressure;BME280_temperature;BME280_humidity;BME280_pressure;Samples;Min_cycle;Max_cycle;Signal;HPM_P1;HPM_P2
2022/01/28 00:01:34;;;;;;;178.02;41.40;;;;;;;-144.47;100.00;61586.06;4971799;28;20047;-76
2022/01/28 00:04:11;;;;;;;82.70;37.85;;;;;;;-144.47;100.00;61586.06;4971761;28;20031;-77
2022/01/28 00:06:37;;;;;;;111.18;37.65;;;;;;;-144.47;100.00;61586.06;4971853;28;20027;-76
2022/01/28 00:09:03;;;;;;;68.05;36.38;;;;;;;-144.47;100.00;61586.06;4971938;28;20535;-77
2022/01/28 00:11:28;;;;;;;75.15;36.53;;;;;;;-144.47;100.00;61586.06;4972290;28;20043;-77
2022/01/28 00:14:04;;;;;;;93.28;36.08;;;;;;;-144.47;100.00;61586.06;4971912;28;20058;-76
2022/01/28 00:38:28;;;;;;;80.13;35.45;;;;;;;-144.47;100.00;61586.06;4965075;28;20062;-77
2022/01/28 00:40:54;;;;;;;76.43;34.92;;;;;;;-144.47;100.00;61586.06;4971160;28;20491;-76
2022/01/28 00:43:19;;;;;;;73.00;34.00;;;;;;;-144.47;100.00;61586.06;4973627;28;20034;-75
2022/01/28 00:45:45;;;;;;;72.45;33.28;;;;;;;-144.47;100.00;61586.06;4958791;28;20035;-76
2022/01/28 00:48:10;;;;;;;67.40;34.33;;;;;;;-144.47;100.00;61586.06;4974632;28;20461;-76
2022/01/28 00:50:36;;;;;;;64.43;34.58;;;;;;;-144.47;100.00;61586.06;4971576;28;20031;-77
2022/01/28 00:53:01;;;;;;;54.88;32.55;;;;;;;-144.47;100.00;61586.06;4971523;28;20479;-77
2022/01/28 00:55:27;;;;;;;56.10;31.15;;;;;;;-144.47;100.00;61586.06;4971828;28;20487;-78
2022/01/28 00:57:53;;;;;;;62.00;31.88;;;;;;;-144.47;100.00;61586.06;4971671;28;20097;-77
2022/01/28 01:00:18;;;;;;;61.05;33.17;;;;;;;-144.47;100.00;61586.06;4971416;28;20727;-77
2022/01/28 01:02:44;;;;;;;93.20;33.47;;;;;;;-144.47;100.00;61586.06;4971447;28;20030;-77
2022/01/28 01:05:10;;;;;;;76.72;32.53;;;;;;;-144.47;100.00;61586.06;4970828;28;20038;-76
2022/01/28 01:07:36;;;;;;;66.43;34.97;;;;;;;-144.47;100.00;61586.06;4971202;28;20034;-75
2022/01/28 01:10:05;;;;;;;77.30;35.25;;;;;;;-144.47;100.00;61586.06;4969703;28;20051;-76
2022/01/28 01:12:33;;;;;;;106.60;36.15;;;;;;;-144.47;100.00;61586.06;4970874;28;20038;-77
2022/01/28 01:14:58;;;;;;;75.85;36.97;;;;;;;-144.47;100.00;61586.06;4971281;28;20035;-76
2022/01/28 01:20:04;;;;;;;87.35;37.05;;;;;;;-144.47;100.00;61586.06;4970604;28;20549;-77
2022/01/28 01:22:37;;;;;;;230.63;41.92;;;;;;;-144.47;100.00;61586.06;4970535;28;20043;-75
2022/01/28 01:25:04;;;;;;;132.70;36.53;;;;;;;-144.47;100.00;61586.06;4970639;28;20033;-77
2022/01/28 01:27:30;;;;;;;86.78;36.65;;;;;;;-144.47;100.00;61586.06;4971081;28;20050;-77
2022/01/28 01:29:55;;;;;;;130.73;38.42;;;;;;;-144.47;100.00;61586.06;4970087;28;20403;-76
2022/01/28 01:32:21;;;;;;;129.77;38.92;;;;;;;-144.47;100.00;61586.06;4969574;28;20888;-76
2022/01/28 01:34:47;;;;;;;90.75;36.83;;;;;;;-144.47;100.00;61586.06;4971232;28;20065;-77
2022/01/28 01:37:12;;;;;;;202.02;39.88;;;;;;;-144.47;100.00;61586.06;4969100;28;20038;-76
2022/01/28 01:39:40;;;;;;;91.78;36.33;;;;;;;-144.47;100.00;61586.06;4974576;28;20042;-76
2022/01/28 01:42:53;;;;;;;79.38;38.38;;;;;;;-144.47;100.00;61586.06;4962595;28;20480;-77
2022/01/28 01:53:20;;;;;;;99.63;36.83;;;;;;;-144.47;100.00;61586.06;4965597;28;20448;-78
2022/01/28 01:55:47;;;;;;;182.07;39.72;;;;;;;-144.47;100.00;61586.06;4968104;28;20122;-75
2022/01/28 01:58:13;;;;;;;104.07;39.65;;;;;;;-144.47;100.00;61586.06;4969402;28;20364;-75
2022/01/28 02:00:39;;;;;;;126.15;40.47;;;;;;;-144.47;100.00;61586.06;4965649;28;20521;-76
2022/01/28 02:03:05;;;;;;;91.95;37.55;;;;;;;-144.47;100.00;61586.06;4970865;28;20042;-76
2022/01/28 02:05:31;;;;;;;105.43;38.80;;;;;;;-144.47;100.00;61586.06;4970425;28;20031;-76
2022/01/28 02:08:04;;;;;;;86.40;38.53;;;;;;;-144.47;100.00;61586.06;4970694;28;20122;-77
2022/01/28 02:10:29;;;;;;;77.07;39.38;;;;;;;-144.47;100.00;61586.06;4970861;28;20484;-76
2022/01/28 02:12:55;;;;;;;103.85;44.40;;;;;;;-144.47;100.00;61586.06;4984107;23;20067;-79
2022/01/28 02:15:20;;;;;;;92.75;43.90;;;;;;;-144.47;100.00;61586.06;4959130;28;20073;-81
2022/01/28 02:17:46;;;;;;;120.53;43.55;;;;;;;-144.47;100.00;61586.06;4959866;28;20066;-81
2022/01/28 02:20:42;;;;;;;109.20;44.97;;;;;;;-144.47;100.00;61586.06;4959238;28;20416;-81
2022/01/28 02:23:07;;;;;;;110.90;43.50;;;;;;;-144.47;100.00;61586.06;4951685;28;20047;-79
2022/01/28 02:25:34;;;;;;;82.38;45.13;;;;;;;-144.47;100.00;61586.06;4950288;28;20046;-80
2022/01/28 02:28:06;;;;;;;98.75;45.75;;;;;;;-144.47;100.00;61586.06;4949962;29;20039;-81
2022/01/28 02:30:32;;;;;;;91.47;46.00;;;;;;;-144.47;100.00;61586.06;4949730;28;20126;-80
2022/01/28 02:33:09;;;;;;;158.18;44.25;;;;;;;-144.47;100.00;61586.06;4950400;29;20063;-81
2022/01/28 02:35:34;;;;;;;92.43;45.22;;;;;;;-144.47;100.00;61586.06;4951001;28;20054;-80
2022/01/28 02:38:00;;;;;;;89.10;44.03;;;;;;;-144.47;100.00;61586.06;4947529;28;20163;-81
2022/01/28 02:40:26;;;;;;;114.63;45.08;;;;;;;-144.47;100.00;61586.06;4948657;28;20043;-80
2022/01/28 02:45:26;;;;;;;79.32;44.33;;;;;;;-144.47;100.00;61586.06;4959606;28;20487;-80
2022/01/28 02:47:57;;;;;;;98.07;43.72;;;;;;;-144.47;100.00;61586.06;4956023;28;20040;-80
2022/01/28 02:50:26;;;;;;;108.28;40.47;;;;;;;-144.47;100.00;61586.06;4954323;29;20632;-82
2022/01/28 02:53:02;;;;;;;69.00;39.75;;;;;;;-144.47;100.00;61586.06;4955268;28;20027;-79
2022/01/28 02:55:30;;;;;;;73.88;39.40;;;;;;;-144.47;100.00;61586.06;4955456;28;20043;-79
2022/01/28 02:58:14;;;;;;;77.75;41.70;;;;;;;-144.47;100.00;61586.06;4955203;28;20110;-79
2022/01/28 03:00:40;;;;;;;70.50;39.80;;;;;;;-144.47;100.00;61586.06;4951840;29;20050;-78
2022/01/28 03:03:07;;;;;;;68.97;40.17;;;;;;;-144.47;100.00;61586.06;4955595;28;20027;-80
2022/01/28 03:05:34;;;;;;;66.32;38.40;;;;;;;-144.47;100.00;61586.06;4962721;28;20812;-79
2022/01/28 03:08:03;;;;;;;68.22;38.40;;;;;;;-144.47;100.00;61586.06;4971718;28;20038;-78
2022/01/28 03:10:42;;;;;;;68.80;37.78;;;;;;;-144.47;100.00;61586.06;4971343;28;20051;-78
2022/01/28 03:15:36;;;;;;;66.28;36.85;;;;;;;-144.47;100.00;61586.06;4974583;28;20290;-80
2022/01/28 03:18:19;;;;;;;130.57;39.13;;;;;;;-144.47;100.00;61586.06;4956610;28;20122;-80
2022/01/28 03:23:19;;;;;;;61.83;34.60;;;;;;;-144.47;100.00;61586.06;4955146;28;20505;-80
2022/01/28 03:25:46;;;;;;;75.25;34.88;;;;;;;-144.47;100.00;61586.06;4952953;28;20078;-79
2022/01/28 03:28:14;;;;;;;55.75;34.58;;;;;;;-144.47;100.00;61586.06;4953322;29;20114;-80
2022/01/28 03:30:39;;;;;;;60.60;35.53;;;;;;;-144.47;100.00;61586.06;4951693;29;20380;-80
2022/01/28 03:33:05;;;;;;;59.88;35.03;;;;;;;-144.47;100.00;61586.06;4954750;28;20024;-80
2022/01/28 03:35:33;;;;;;;106.25;37.78;;;;;;;-144.47;100.00;61586.06;4955360;28;20122;-80
2022/01/28 03:38:00;;;;;;;100.32;36.55;;;;;;;-144.47;100.00;61586.06;4954493;28;20125;-79
2022/01/28 03:40:27;;;;;;;58.40;36.63;;;;;;;-144.47;100.00;61586.06;4954120;28;20594;-80
2022/01/28 03:42:53;;;;;;;65.93;37.20;;;;;;;-144.47;100.00;61586.06;4953456;28;20523;-80
2022/01/28 03:45:18;;;;;;;62.63;36.83;;;;;;;-144.47;100.00;61586.06;4960148;28;20035;-81
2022/01/28 03:47:44;;;;;;;62.08;36.75;;;;;;;-144.47;100.00;61586.06;4953607;28;20395;-79
2022/01/28 03:50:09;;;;;;;105.60;37.35;;;;;;;-144.47;100.00;61586.06;4953516;28;20031;-81
2022/01/28 03:52:35;;;;;;;91.22;36.08;;;;;;;-144.47;100.00;61586.06;4953876;28;20023;-81
2022/01/28 03:55:00;;;;;;;70.53;37.50;;;;;;;-144.47;100.00;61586.06;4953196;28;20444;-80
2022/01/28 03:57:26;;;;;;;73.82;36.90;;;;;;;-144.47;100.00;61586.06;4953377;28;20389;-80
2022/01/28 03:59:51;;;;;;;63.67;35.08;;;;;;;-144.47;100.00;61586.06;4953446;28;20059;-80
2022/01/28 04:02:24;;;;;;;58.53;35.60;;;;;;;-144.47;100.00;61586.06;4953282;28;20031;-80
2022/01/28 04:12:51;;;;;;;64.88;35.13;;;;;;;-144.47;100.00;61586.06;4950399;28;20039;-79
2022/01/28 04:18:00;;;;;;;59.45;34.58;;;;;;;-144.47;100.00;61586.06;4953528;28;20479;-79
2022/01/28 04:20:26;;;;;;;61.75;36.95;;;;;;;-144.47;100.00;61586.06;4952636;28;20050;-80
2022/01/28 04:22:51;;;;;;;61.92;36.28;;;;;;;-144.47;100.00;61586.06;4953321;28;20503;-80
2022/01/28 04:25:17;;;;;;;60.67;35.80;;;;;;;-144.47;100.00;61586.06;4952485;28;20019;-80
2022/01/28 04:27:43;;;;;;;55.33;35.50;;;;;;;-144.47;100.00;61586.06;4952435;28;20515;-79
2022/01/28 04:30:09;;;;;;;61.58;37.75;;;;;;;-144.47;100.00;61586.06;4952081;28;20387;-78
2022/01/28 04:32:36;;;;;;;51.90;33.30;;;;;;;-144.47;100.00;61586.06;4952423;28;20074;-80
2022/01/28 04:35:01;;;;;;;59.25;35.35;;;;;;;-144.47;100.00;61586.06;4952321;28;20110;-79
2022/01/28 04:39:59;;;;;;;57.47;35.15;;;;;;;-144.47;100.00;61586.06;4952226;28;20039;-80
2022/01/28 05:27:28;;;;;;;56.33;36.65;;;;;;;-144.47;100.00;61586.06;4949866;29;20278;-79
2022/01/28 05:29:54;;;;;;;54.60;34.05;;;;;;;-144.47;100.00;61586.06;4951603;28;20039;-79
2022/01/28 05:32:20;;;;;;;55.70;36.05;;;;;;;-144.47;100.00;61586.06;4951643;28;20432;-79
2022/01/28 05:34:47;;;;;;;51.55;34.75;;;;;;;-144.47;100.00;61586.06;4952039;28;20491;-80
2022/01/28 05:37:12;;;;;;;52.90;34.22;;;;;;;-144.47;100.00;61586.06;4951936;28;20395;-79
2022/01/28 05:39:38;;;;;;;51.97;33.67;;;;;;;-144.47;100.00;61586.06;4952212;28;20200;-80
2022/01/28 05:42:04;;;;;;;58.03;34.50;;;;;;;-144.47;100.00;61586.06;4951804;28;20047;-79
2022/01/28 05:44:30;;;;;;;52.88;33.85;;;;;;;-144.47;100.00;61586.06;4954871;28;20171;-80
2022/01/28 05:47:02;;;;;;;57.47;35.25;;;;;;;-144.47;100.00;61586.06;4952097;28;20109;-80
2022/01/28 05:49:28;;;;;;;57.60;34.22;;;;;;;-144.47;100.00;61586.06;4953296;28;20137;-79
2022/01/28 05:51:54;;;;;;;56.30;35.50;;;;;;;-144.47;100.00;61586.06;4956133;28;20055;-81
2022/01/28 05:54:19;;;;;;;53.75;34.97;;;;;;;-144.47;100.00;61586.06;4955663;28;20031;-81
2022/01/28 05:56:45;;;;;;;58.75;37.20;;;;;;;-144.47;100.00;61586.06;4956310;28;20064;-81
2022/01/28 05:59:10;;;;;;;55.22;35.78;;;;;;;-144.47;100.00;61586.06;4955213;28;20031;-80
2022/01/28 06:01:36;;;;;;;56.15;35.60;;;;;;;-144.47;100.00;61586.06;4955363;28;20189;-79
2022/01/28 06:04:01;;;;;;;58.38;35.65;;;;;;;-144.47;100.00;61586.06;4955437;28;20031;-79
2022/01/28 06:06:27;;;;;;;60.20;37.45;;;;;;;-144.47;100.00;61586.06;4955496;28;20034;-79
2022/01/28 06:08:55;;;;;;;54.17;34.28;;;;;;;-144.47;100.00;61586.06;4955639;28;20514;-79
2022/01/28 06:11:22;;;;;;;64.55;38.25;;;;;;;-144.47;100.00;61586.06;4955258;28;20027;-78
2022/01/28 06:13:48;;;;;;;61.30;36.33;;;;;;;-144.47;100.00;61586.06;4958610;28;20043;-78
2022/01/28 06:16:14;;;;;;;62.25;37.45;;;;;;;-144.47;100.00;61586.06;4955213;28;20393;-78
2022/01/28 06:18:41;;;;;;;58.47;36.72;;;;;;;-144.47;100.00;61586.06;4952035;29;20062;-80
2022/01/28 06:21:06;;;;;;;55.15;35.58;;;;;;;-144.47;100.00;61586.06;4955387;28;20042;-80
2022/01/28 06:23:33;;;;;;;56.33;35.55;;;;;;;-144.47;100.00;61586.06;4955356;28;20039;-80
2022/01/28 06:25:59;;;;;;;58.60;34.78;;;;;;;-144.47;100.00;61586.06;4955875;28;20031;-81
2022/01/28 06:28:25;;;;;;;55.00;33.90;;;;;;;-144.47;100.00;61586.06;4955372;28;20070;-78
2022/01/28 06:30:51;;;;;;;61.30;36.83;;;;;;;-144.47;100.00;61586.06;4951077;28;20031;-78
2022/01/28 06:33:17;;;;;;;54.28;33.88;;;;;;;-144.47;100.00;61586.06;4952856;28;20023;-82
2022/01/28 06:35:45;;;;;;;56.28;34.50;;;;;;;-144.47;100.00;61586.06;4952811;28;20039;-78
2022/01/28 06:38:11;;;;;;;59.78;34.72;;;;;;;-144.47;100.00;61586.06;4951168;29;20042;-76
2022/01/28 06:40:37;;;;;;;58.55;36.13;;;;;;;-144.47;100.00;61586.06;4952481;28;20039;-77
2022/01/28 06:43:03;;;;;;;52.78;35.45;;;;;;;-144.47;100.00;61586.06;4953556;28;20042;-75
2022/01/28 06:45:29;;;;;;;57.08;36.35;;;;;;;-144.47;100.00;61586.06;4951734;28;20542;-76
2022/01/28 06:47:55;;;;;;;55.97;35.50;;;;;;;-144.47;100.00;61586.06;4951987;28;20122;-79
2022/01/28 06:50:20;;;;;;;59.85;37.78;;;;;;;-144.47;100.00;61586.06;4944706;28;20040;-79
2022/01/28 06:52:46;;;;;;;59.53;36.55;;;;;;;-144.47;100.00;61586.06;4948002;28;20175;-79
2022/01/28 06:55:14;;;;;;;58.85;37.30;;;;;;;-144.47;100.00;61586.06;4953487;28;20038;-79
2022/01/28 06:57:40;;;;;;;57.38;35.95;;;;;;;-144.47;100.00;61586.06;4951470;29;20118;-79
2022/01/28 07:00:07;;;;;;;61.45;37.58;;;;;;;-144.47;100.00;61586.06;4951660;28;20093;-78
2022/01/28 07:02:33;;;;;;;55.65;35.65;;;;;;;-144.47;100.00;61586.06;4604706;28;10000579;-82
2022/01/28 07:04:59;;;;;;;56.60;37.17;;;;;;;-144.47;100.00;61586.06;4943948;29;20043;-78
2022/01/28 07:07:26;;;;;;;59.28;36.15;;;;;;;-144.47;100.00;61586.06;4944937;29;20039;-78
2022/01/28 07:09:52;;;;;;;60.75;36.63;;;;;;;-144.47;100.00;61586.06;4946106;28;20031;-77
2022/01/28 07:12:18;;;;;;;59.65;38.08;;;;;;;-144.47;100.00;61586.06;4950725;29;20165;-78
2022/01/28 07:14:44;;;;;;;57.42;35.88;;;;;;;-144.47;100.00;61586.06;4953945;29;20056;-79
2022/01/28 07:17:09;;;;;;;58.47;36.47;;;;;;;-144.47;100.00;61586.06;4957151;29;20136;-79
2022/01/28 07:19:34;;;;;;;60.92;37.67;;;;;;;-144.47;100.00;61586.06;4971394;28;20099;-79
2022/01/28 07:22:00;;;;;;;60.78;37.30;;;;;;;-144.47;100.00;61586.06;4971918;28;20178;-78
2022/01/28 07:24:25;;;;;;;62.08;38.95;;;;;;;-144.47;100.00;61586.06;4975395;28;20050;-80
2022/01/28 07:26:51;;;;;;;64.78;39.08;;;;;;;-144.47;100.00;61586.06;4973759;28;20028;-77
2022/01/28 07:29:17;;;;;;;59.75;39.05;;;;;;;-144.47;100.00;61586.06;4955891;29;20031;-79
2022/01/28 07:31:43;;;;;;;62.20;37.97;;;;;;;-144.47;100.00;61586.06;4954947;29;20043;-79
2022/01/28 07:34:09;;;;;;;56.50;36.08;;;;;;;-144.47;100.00;61586.06;4955274;28;20101;-78
2022/01/28 07:36:36;;;;;;;57.63;37.03;;;;;;;-144.47;100.00;61586.06;4955553;28;20047;-78
2022/01/28 07:39:05;;;;;;;58.72;36.75;;;;;;;-144.47;100.00;61586.06;4954938;28;20031;-79
2022/01/28 07:41:31;;;;;;;58.42;36.70;;;;;;;-144.47;100.00;61586.06;4954824;28;20058;-78
2022/01/28 07:43:57;;;;;;;63.78;36.17;;;;;;;-144.47;100.00;61586.06;4954963;28;20517;-79
2022/01/28 07:46:22;;;;;;;59.38;37.47;;;;;;;-144.47;100.00;61586.06;4954313;28;20069;-78
2022/01/28 07:48:48;;;;;;;61.95;38.78;;;;;;;-144.47;100.00;61586.06;4954232;28;20043;-78
2022/01/28 07:51:13;;;;;;;61.50;38.83;;;;;;;-144.47;100.00;61586.06;4954197;28;20118;-78
2022/01/28 07:53:39;;;;;;;68.57;38.28;;;;;;;-144.47;100.00;61586.06;4955954;28;20102;-78
2022/01/28 07:56:04;;;;;;;68.07;37.63;;;;;;;-144.47;100.00;61586.06;4953684;28;20082;-78
2022/01/28 07:58:30;;;;;;;58.45;37.35;;;;;;;-144.47;100.00;61586.06;4953921;28;20034;-79
2022/01/28 08:00:56;;;;;;;62.53;37.00;;;;;;;-144.47;100.00;61586.06;4954427;28;20419;-78
2022/01/28 08:03:21;;;;;;;63.38;37.95;;;;;;;-144.47;100.00;61586.06;4954011;28;20134;-78
2022/01/28 08:05:47;;;;;;;66.13;37.40;;;;;;;-144.47;100.00;61586.06;4940944;28;20023;-80
2022/01/28 08:08:13;;;;;;;63.42;37.88;;;;;;;-144.47;100.00;61586.06;4943735;28;20039;-77
2022/01/28 08:10:39;;;;;;;64.88;39.42;;;;;;;-144.47;100.00;61586.06;4944124;29;20039;-78
2022/01/28 08:13:05;;;;;;;68.07;40.55;;;;;;;-144.47;100.00;61586.06;4942477;29;20051;-78
2022/01/28 08:15:31;;;;;;;67.10;42.17;;;;;;;-144.47;100.00;61586.06;4942379;29;20148;-78
2022/01/28 08:17:57;;;;;;;70.75;43.83;;;;;;;-144.47;100.00;61586.06;4947417;29;20476;-77
2022/01/28 08:20:23;;;;;;;71.90;43.72;;;;;;;-144.47;100.00;61586.06;4944762;28;20044;-77
2022/01/28 08:22:52;;;;;;;67.13;43.67;;;;;;;-144.47;100.00;61586.06;4953565;28;20411;-78
2022/01/28 08:25:21;;;;;;;67.78;42.45;;;;;;;-144.47;100.00;61586.06;4953397;29;20515;-78
2022/01/28 08:27:48;;;;;;;62.92;40.85;;;;;;;-144.47;100.00;61586.06;4945954;29;20040;-76
2022/01/28 08:30:16;;;;;;;66.15;40.45;;;;;;;-144.47;100.00;61586.06;4940221;29;20090;-77
2022/01/28 08:32:43;;;;;;;60.45;38.25;;;;;;;-144.47;100.00;61586.06;4943813;29;20524;-77
2022/01/28 08:35:09;;;;;;;61.33;38.67;;;;;;;-144.47;100.00;61586.06;4942602;28;20031;-76
2022/01/28 08:37:34;;;;;;;62.35;39.65;;;;;;;-144.47;100.00;61586.06;4944316;29;21089;-77
2022/01/28 08:40:00;;;;;;;64.60;40.35;;;;;;;-144.47;100.00;61586.06;4949590;29;20136;-77
2022/01/28 08:42:27;;;;;;;65.45;42.92;;;;;;;-144.47;100.00;61586.06;4948706;28;20087;-76
2022/01/28 08:44:53;;;;;;;62.65;40.67;;;;;;;-144.47;100.00;61586.06;4950060;29;20119;-75
2022/01/28 08:47:18;;;;;;;66.70;39.83;;;;;;;-144.47;100.00;61586.06;4950330;28;20051;-75
2022/01/28 08:49:46;;;;;;;62.22;39.00;;;;;;;-144.47;100.00;61586.06;4949031;28;20500;-74
2022/01/28 08:52:12;;;;;;;64.07;41.55;;;;;;;-144.47;100.00;61586.06;4948940;29;20050;-75
2022/01/28 08:54:40;;;;;;;63.83;40.85;;;;;;;-144.47;100.00;61586.06;4952275;28;20515;-74
2022/01/28 08:57:06;;;;;;;65.20;41.42;;;;;;;-144.47;100.00;61586.06;4951784;28;20027;-74
2022/01/28 08:59:31;;;;;;;60.47;40.97;;;;;;;-144.47;100.00;61586.06;4943524;28;20398;-76
2022/01/28 09:01:56;;;;;;;71.70;43.30;;;;;;;-144.47;100.00;61586.06;4943499;28;20028;-74
2022/01/28 09:04:22;;;;;;;68.00;44.53;;;;;;;-144.47;100.00;61586.06;4942006;28;20046;-75
2022/01/28 09:06:47;;;;;;;73.82;47.70;;;;;;;-144.47;100.00;61586.06;4949158;29;20062;-74
2022/01/28 09:09:13;;;;;;;71.03;45.15;;;;;;;-144.47;100.00;61586.06;4943806;28;20067;-76
2022/01/28 09:11:48;;;;;;;80.40;46.95;;;;;;;-144.47;100.00;61586.06;4940867;28;20516;-76
2022/01/28 09:14:14;;;;;;;68.28;44.88;;;;;;;-144.47;100.00;61586.06;4948497;29;20043;-75
2022/01/28 09:16:42;;;;;;;69.97;45.30;;;;;;;-144.47;100.00;61586.06;4950148;29;20249;-73
2022/01/28 09:19:07;;;;;;;75.43;45.60;;;;;;;-144.47;100.00;61586.06;4940846;29;20030;-75
2022/01/28 09:21:33;;;;;;;71.53;44.90;;;;;;;-144.47;100.00;61586.06;4942830;28;20387;-75
2022/01/28 09:23:58;;;;;;;73.32;45.05;;;;;;;-144.47;100.00;61586.06;4946522;28;20027;-77
2022/01/28 09:26:24;;;;;;;64.78;43.13;;;;;;;-144.47;100.00;61586.06;4951346;28;20050;-75
2022/01/28 09:28:49;;;;;;;70.22;44.20;;;;;;;-144.47;100.00;61586.06;4951949;28;20034;-74
2022/01/28 09:31:15;;;;;;;69.32;45.22;;;;;;;-144.47;100.00;61586.06;4951568;28;20111;-76
2022/01/28 09:33:40;;;;;;;70.80;44.85;;;;;;;-144.47;100.00;61586.06;4952366;28;20428;-77
2022/01/28 09:36:07;;;;;;;71.38;45.83;;;;;;;-144.47;100.00;61586.06;4943067;29;20059;-77
2022/01/28 09:38:33;;;;;;;69.28;45.75;;;;;;;-144.47;100.00;61586.06;4944092;28;20024;-75
2022/01/28 09:41:01;;;;;;;73.95;45.08;;;;;;;-144.47;100.00;61586.06;4942847;29;20096;-73
2022/01/28 09:43:26;;;;;;;68.32;44.95;;;;;;;-144.47;100.00;61586.06;4941407;29;20135;-75
2022/01/28 09:45:52;;;;;;;72.30;45.25;;;;;;;-144.47;100.00;61586.06;4941271;29;20455;-75
2022/01/28 09:48:19;;;;;;;67.60;44.13;;;;;;;-144.47;100.00;61586.06;4945436;28;20035;-74
2022/01/28 09:50:46;;;;;;;70.78;43.72;;;;;;;-144.47;100.00;61586.06;4943244;28;20040;-74
2022/01/28 09:53:13;;;;;;;68.57;40.97;;;;;;;-144.47;100.00;61586.06;4946610;28;20023;-77
2022/01/28 09:55:39;;;;;;;67.82;43.45;;;;;;;-144.47;100.00;61586.06;4943670;28;20063;-73
2022/01/28 09:58:04;;;;;;;66.07;42.97;;;;;;;-144.47;100.00;61586.06;4942337;29;20063;-74
2022/01/28 10:00:32;;;;;;;62.75;41.92;;;;;;;-144.47;100.00;61586.06;4940733;28;20044;-75
2022/01/28 10:02:59;;;;;;;64.70;42.15;;;;;;;-144.47;100.00;61586.06;4945250;28;20059;-75
2022/01/28 10:05:30;;;;;;;66.75;41.85;;;;;;;-144.47;100.00;61586.06;4937380;29;20082;-76
2022/01/28 10:08:05;;;;;;;60.53;39.53;;;;;;;-144.47;100.00;61586.06;4938794;29;20078;-75
2022/01/28 10:10:42;;;;;;;66.22;42.72;;;;;;;-144.47;100.00;61586.06;4939894;29;20036;-75
2022/01/28 10:13:37;;;;;;;63.35;42.13;;;;;;;-144.47;100.00;61586.06;4941970;29;20574;-76
2022/01/28 10:16:05;;;;;;;59.50;39.78;;;;;;;-144.47;100.00;61586.06;4942732;29;20118;-75
2022/01/28 10:18:43;;;;;;;63.60;41.05;;;;;;;-144.47;100.00;61586.06;4937645;29;20046;-74
2022/01/28 10:21:26;;;;;;;66.22;41.60;;;;;;;-144.47;100.00;61586.06;4944261;29;20111;-76
2022/01/28 10:23:58;;;;;;;63.55;40.22;;;;;;;-144.47;100.00;61586.06;4945474;28;20027;-74
2022/01/28 10:26:38;;;;;;;67.47;40.65;;;;;;;-144.47;100.00;61586.06;4940789;28;20500;-75
2022/01/28 10:29:07;;;;;;;66.28;41.28;;;;;;;-144.47;100.00;61586.06;4942019;29;20032;-76
2022/01/28 10:31:44;;;;;;;65.15;40.75;;;;;;;-144.47;100.00;61586.06;4940076;28;20067;-76
2022/01/28 10:34:16;;;;;;;60.58;39.97;;;;;;;-144.47;100.00;61586.06;4951882;28;20547;-76
2022/01/28 10:36:42;;;;;;;61.42;40.33;;;;;;;-144.47;100.00;61586.06;4951609;29;20034;-76
2022/01/28 10:39:14;;;;;;;61.97;41.20;;;;;;;-144.47;100.00;61586.06;4954870;28;20105;-75
2022/01/28 10:41:51;;;;;;;71.88;42.67;;;;;;;-144.47;100.00;61586.06;4946165;28;20036;-75
2022/01/28 10:44:17;;;;;;;67.85;43.50;;;;;;;-144.47;100.00;61586.06;4944713;28;20059;-74
2022/01/28 10:46:50;;;;;;;65.18;41.95;;;;;;;-144.47;100.00;61586.06;4946005;28;20499;-74
2022/01/28 10:49:16;;;;;;;67.20;42.75;;;;;;;-144.47;100.00;61586.06;4954218;29;20035;-74
2022/01/28 10:51:47;;;;;;;69.00;43.92;;;;;;;-144.47;100.00;61586.06;4954760;28;20035;-72
2022/01/28 10:54:15;;;;;;;67.82;45.38;;;;;;;-144.47;100.00;61586.06;4952750;28;20114;-73
2022/01/28 10:56:58;;;;;;;65.88;42.75;;;;;;;-144.47;100.00;61586.06;4950818;29;20365;-79
2022/01/28 10:59:35;;;;;;;70.70;44.90;;;;;;;-144.47;100.00;61586.06;4945142;29;20063;-75
2022/01/28 11:02:02;;;;;;;65.22;42.58;;;;;;;-144.47;100.00;61586.06;4953936;29;20477;-77
2022/01/28 11:04:28;;;;;;;67.93;45.47;;;;;;;-144.47;100.00;61586.06;4945940;28;20027;-74
2022/01/28 11:06:57;;;;;;;73.10;44.35;;;;;;;-144.47;100.00;61586.06;4945897;28;20042;-73
2022/01/28 11:09:22;;;;;;;63.90;45.30;;;;;;;-144.47;100.00;61586.06;4944390;29;20035;-76
2022/01/28 11:11:49;;;;;;;67.32;43.50;;;;;;;-144.47;100.00;61586.06;4949892;28;20108;-78
2022/01/28 11:14:15;;;;;;;64.78;44.03;;;;;;;-144.47;100.00;61586.06;4951570;28;20047;-76
2022/01/28 11:16:42;;;;;;;65.63;44.20;;;;;;;-144.47;100.00;61586.06;4947436;28;20044;-78
2022/01/28 11:19:10;;;;;;;69.88;44.95;;;;;;;-144.47;100.00;61586.06;4957122;29;20023;-77
2022/01/28 11:21:55;;;;;;;69.13;46.53;;;;;;;-144.47;100.00;61586.06;4960623;29;20059;-78
2022/01/28 11:24:49;;;;;;;66.22;45.03;;;;;;;-144.47;100.00;61586.06;4967160;29;20071;-76
2022/01/28 11:27:46;;;;;;;65.28;44.55;;;;;;;-144.47;100.00;61586.06;4969846;29;20019;-76
2022/01/28 11:30:17;;;;;;;74.55;47.60;;;;;;;-144.47;100.00;61586.06;4942536;29;20047;-77
2022/01/28 11:33:05;;;;;;;71.10;47.03;;;;;;;-144.47;100.00;61586.06;4946699;29;20031;-76
2022/01/28 11:35:39;;;;;;;72.70;46.72;;;;;;;-144.47;100.00;61586.06;4948105;29;20126;-75
2022/01/28 11:38:30;;;;;;;70.75;46.30;;;;;;;-144.47;100.00;61586.06;4952804;28;20031;-77
2022/01/28 11:40:59;;;;;;;65.63;44.67;;;;;;;-144.47;100.00;61586.06;4702441;29;10001271;-77
2022/01/28 11:43:30;;;;;;;66.85;44.85;;;;;;;-144.47;100.00;61586.06;4939390;29;20257;-77
2022/01/28 11:46:08;;;;;;;67.35;45.00;;;;;;;-144.47;100.00;61586.06;4944290;28;20035;-79
2022/01/28 11:48:51;;;;;;;64.47;44.00;;;;;;;-144.47;100.00;61586.06;4945696;28;20058;-79
2022/01/28 11:51:43;;;;;;;63.05;43.22;;;;;;;-144.47;100.00;61586.06;4947203;29;20047;-78
2022/01/28 11:54:14;;;;;;;63.67;41.80;;;;;;;-144.47;100.00;61586.06;4952921;28;20452;-78
2022/01/28 11:57:13;;;;;;;61.10;42.10;;;;;;;-144.47;100.00;61586.06;4951818;28;20035;-78
2022/01/28 11:59:39;;;;;;;54.92;38.28;;;;;;;-144.47;100.00;61586.06;4951933;29;20131;-79
2022/01/28 12:02:10;;;;;;;53.17;36.47;;;;;;;-144.47;100.00;61586.06;4951744;28;20042;-78
2022/01/28 12:04:37;;;;;;;54.67;37.33;;;;;;;-144.47;100.00;61586.06;4951841;28;20100;-79
2022/01/28 12:07:06;;;;;;;52.50;34.50;;;;;;;-144.47;100.00;61586.06;4951828;28;20053;-77
2022/01/28 12:09:33;;;;;;;47.25;33.78;;;;;;;-144.47;100.00;61586.06;4953215;28;20031;-78
2022/01/28 12:12:00;;;;;;;51.85;34.28;;;;;;;-144.47;100.00;61586.06;4953410;28;20110;-79
2022/01/28 12:15:02;;;;;;;43.47;29.23;;;;;;;-144.47;100.00;61586.06;4952957;28;20109;-79
2022/01/28 12:17:31;;;;;;;41.58;29.77;;;;;;;-144.47;100.00;61586.06;4951012;29;20507;-78
2022/01/28 12:20:21;;;;;;;40.65;30.15;;;;;;;-144.47;100.00;61586.06;4953000;28;20063;-78
2022/01/28 12:23:25;;;;;;;42.25;28.98;;;;;;;-144.47;100.00;61586.06;4951642;28;20472;-79
2022/01/28 12:25:55;;;;;;;43.05;29.85;;;;;;;-144.47;100.00;61586.06;4944938;29;20464;-80
2022/01/28 12:28:41;;;;;;;40.20;29.20;;;;;;;-144.47;100.00;61586.06;4942342;29;20020;-78
2022/01/28 12:31:19;;;;;;;38.33;28.30;;;;;;;-144.47;100.00;61586.06;4941557;28;20031;-79
2022/01/28 12:33:48;;;;;;;41.30;30.52;;;;;;;-144.47;100.00;61586.06;4932230;29;20468;-78
2022/01/28 12:36:21;;;;;;;42.17;29.77;;;;;;;-144.47;100.00;61586.06;4948794;29;20041;-80
2022/01/28 12:39:01;;;;;;;39.78;30.48;;;;;;;-144.47;100.00;61586.06;4946235;29;20027;-77